createdAt,value
2022-10-31T00:00:48.894Z,100.00
2022-10-31T00:03:17.420Z,100.00
2022-10-31T00:05:46.617Z,100.00
2022-10-31T00:08:14.971Z,100.00
2022-10-31T00:10:43.537Z,100.00
2022-10-31T00:13:12.657Z,100.00
2022-10-31T00:15:42.423Z,100.00
2022-10-31T00:18:11.618Z,100.00
2022-10-31T00:20:40.102Z,100.00
2022-10-31T00:23:08.962Z,100.00
2022-10-31T00:25:39.624Z,100.00
2022-10-31T00:28:08.570Z,100.00
2022-10-31T00:30:36.820Z,100.00
2022-10-31T00:33:07.330Z,100.00
2022-10-31T00:35:35.258Z,100.00
2022-10-31T00:38:03.057Z,100.00
2022-10-31T00:40:31.058Z,100.00
2022-10-31T00:42:59.517Z,100.00
2022-10-31T00:45:27.607Z,100.00
2022-10-31T00:47:55.529Z,100.00
2022-10-31T00:50:24.930Z,100.00
2022-10-31T00:52:52.905Z,100.00
2022-10-31T00:55:20.879Z,100.00
2022-10-31T00:57:48.956Z,100.00
2022-10-31T01:00:17.326Z,100.00
2022-10-31T01:02:45.319Z,100.00
2022-10-31T01:05:13.747Z,100.00
2022-10-31T01:07:43.552Z,100.00
2022-10-31T01:10:12.044Z,100.00
2022-10-31T01:12:39.955Z,100.00
2022-10-31T01:15:09.269Z,100.00
2022-10-31T01:17:37.096Z,100.00
2022-10-31T01:20:05.831Z,100.00
2022-10-31T01:22:33.952Z,100.00
2022-10-31T01:25:03.372Z,100.00
2022-10-31T01:27:31.295Z,100.00
2022-10-31T01:29:59.335Z,100.00
2022-10-31T01:32:27.815Z,100.00
2022-10-31T01:34:55.599Z,100.00
2022-10-31T01:37:23.445Z,100.00
2022-10-31T01:39:51.253Z,100.00
2022-10-31T01:42:24.136Z,100.00
2022-10-31T01:45:01.333Z,100.00
2022-10-31T01:47:36.539Z,100.00
2022-10-31T01:50:07.906Z,100.00
2022-10-31T01:52:39.882Z,100.00
2022-10-31T01:55:09.521Z,100.00
2022-10-31T01:57:40.146Z,100.00
2022-10-31T02:00:10.708Z,100.00
2022-10-31T02:02:38.827Z,100.00
2022-10-31T02:05:09.524Z,100.00
2022-10-31T02:07:40.994Z,100.00
2022-10-31T02:10:09.461Z,100.00
2022-10-31T02:12:39.028Z,100.00
2022-10-31T02:15:08.460Z,100.00
2022-10-31T02:17:36.649Z,100.00
2022-10-31T02:20:14.340Z,100.00
2022-10-31T02:22:56.322Z,100.00
2022-10-31T02:25:39.282Z,100.00
2022-10-31T02:28:21.875Z,100.00
2022-10-31T02:31:03.649Z,100.00
2022-10-31T02:33:35.197Z,100.00
2022-10-31T02:36:07.814Z,100.00
2022-10-31T02:38:46.860Z,100.00
2022-10-31T02:41:22.121Z,100.00
2022-10-31T02:43:57.747Z,100.00
2022-10-31T02:46:31.158Z,100.00
2022-10-31T02:49:03.634Z,100.00
2022-10-31T02:51:32.029Z,100.00
2022-10-31T02:53:59.888Z,100.00
2022-10-31T02:56:27.953Z,100.00
2022-10-31T02:58:57.775Z,100.00
2022-10-31T03:02:04.112Z,100.00
2022-10-31T03:04:43.695Z,100.00
2022-10-31T03:07:18.974Z,100.00
2022-10-31T03:09:53.910Z,100.00
2022-10-31T03:12:27.325Z,100.00
2022-10-31T03:14:59.214Z,100.00
2022-10-31T03:17:32.055Z,100.00
2022-10-31T03:20:03.693Z,100.00
2022-10-31T03:22:34.571Z,100.00
2022-10-31T03:25:04.747Z,100.00
2022-10-31T03:27:35.358Z,100.00
2022-10-31T03:30:06.059Z,100.00
2022-10-31T03:32:38.757Z,100.00
2022-10-31T03:35:10.469Z,100.00
2022-10-31T03:37:41.639Z,100.00
2022-10-31T03:40:12.386Z,100.00
2022-10-31T03:42:42.399Z,100.00
2022-10-31T03:45:13.919Z,100.00
2022-10-31T03:47:42.598Z,100.00
2022-10-31T03:50:13.850Z,100.00
2022-10-31T03:52:45.554Z,100.00
2022-10-31T03:55:19.840Z,100.00
2022-10-31T03:57:54.030Z,100.00
2022-10-31T04:00:22.250Z,100.00
2022-10-31T04:02:55.889Z,100.00
2022-10-31T04:05:25.647Z,100.00
2022-10-31T04:07:56.079Z,100.00
2022-10-31T04:10:30.127Z,100.00
2022-10-31T04:13:03.842Z,100.00
2022-10-31T04:15:33.438Z,100.00
2022-10-31T04:18:02.855Z,100.00
2022-10-31T04:20:37.034Z,100.00
2022-10-31T04:23:07.212Z,100.00
2022-10-31T04:25:36.707Z,100.00
2022-10-31T04:28:04.952Z,100.00
2022-10-31T04:30:32.965Z,100.00
2022-10-31T04:33:01.040Z,100.00
2022-10-31T04:35:29.133Z,100.00
2022-10-31T04:37:58.394Z,100.00
2022-10-31T04:40:26.455Z,100.00
2022-10-31T04:42:54.345Z,100.00
2022-10-31T04:45:22.228Z,100.00
2022-10-31T04:47:50.131Z,100.00
2022-10-31T04:50:18.173Z,100.00
2022-10-31T04:52:46.776Z,100.00
2022-10-31T04:55:16.478Z,100.00
2022-10-31T04:57:44.875Z,100.00
2022-10-31T05:00:14.558Z,100.00
2022-10-31T05:02:46.242Z,100.00
2022-10-31T05:05:14.526Z,100.00
2022-10-31T05:07:43.033Z,100.00
2022-10-31T05:10:12.034Z,100.00
2022-10-31T05:12:48.008Z,100.00
2022-10-31T05:15:16.579Z,100.00
2022-10-31T05:17:44.741Z,100.00
2022-10-31T05:20:12.882Z,100.00
2022-10-31T05:22:44.783Z,100.00
2022-10-31T05:25:13.108Z,100.00
2022-10-31T05:27:43.310Z,100.00
2022-10-31T05:30:13.134Z,100.00
2022-10-31T05:32:41.527Z,100.00
2022-10-31T05:35:10.556Z,100.00
2022-10-31T05:37:38.583Z,100.00
2022-10-31T05:40:08.616Z,100.00
2022-10-31T05:42:36.984Z,100.00
2022-10-31T05:45:07.509Z,100.00
2022-10-31T05:47:35.660Z,100.00
2022-10-31T05:50:03.486Z,100.00
2022-10-31T05:52:31.399Z,100.00
2022-10-31T05:54:59.246Z,100.00
2022-10-31T05:57:27.291Z,100.00
2022-10-31T05:59:55.377Z,100.00
2022-10-31T06:02:24.655Z,100.00
2022-10-31T06:04:52.466Z,100.00
2022-10-31T06:07:20.321Z,100.00
2022-10-31T06:09:48.020Z,100.00
2022-10-31T06:12:15.843Z,100.00
2022-10-31T06:14:43.662Z,100.00
2022-10-31T06:17:11.412Z,100.00
2022-10-31T06:19:40.787Z,100.00
2022-10-31T06:22:08.799Z,100.00
2022-10-31T06:24:36.844Z,100.00
2022-10-31T06:27:04.900Z,100.00
2022-10-31T06:29:32.720Z,100.00
2022-10-31T06:32:00.995Z,100.00
2022-10-31T06:34:28.925Z,100.00
2022-10-31T06:36:58.236Z,100.00
2022-10-31T06:39:26.018Z,100.00
2022-10-31T06:41:54.001Z,100.00
2022-10-31T06:44:24.150Z,100.00
2022-10-31T06:46:52.194Z,100.00
2022-10-31T06:49:20.197Z,100.00
2022-10-31T06:51:49.619Z,100.00
2022-10-31T06:54:19.272Z,100.00
2022-10-31T06:56:48.152Z,100.00
2022-10-31T06:59:15.984Z,100.00
2022-10-31T07:01:43.882Z,100.00
2022-10-31T07:04:12.011Z,100.00
2022-10-31T07:06:40.260Z,100.00
2022-10-31T07:09:08.318Z,100.00
2022-10-31T07:11:37.537Z,100.00
2022-10-31T07:14:05.497Z,100.00
2022-10-31T07:16:33.326Z,100.00
2022-10-31T07:19:01.127Z,100.00
2022-10-31T07:21:29.053Z,100.00
2022-10-31T07:23:57.041Z,100.00
2022-10-31T07:26:24.952Z,100.00
2022-10-31T07:28:54.260Z,100.00
2022-10-31T07:31:22.201Z,100.00
2022-10-31T07:33:50.103Z,100.00
2022-10-31T07:36:18.092Z,100.00
2022-10-31T07:38:46.210Z,100.00
2022-10-31T07:41:14.077Z,100.00
2022-10-31T07:43:41.976Z,100.00
2022-10-31T07:46:12.421Z,100.00
2022-10-31T07:48:40.378Z,100.00
2022-10-31T07:51:08.447Z,100.00
2022-10-31T07:53:36.324Z,100.00
2022-10-31T07:56:04.318Z,100.00
2022-10-31T07:58:32.224Z,100.00
2022-10-31T08:01:00.372Z,100.00
2022-10-31T08:03:29.936Z,100.00
2022-10-31T08:05:59.562Z,100.00
2022-10-31T08:08:31.238Z,100.00
2022-10-31T08:11:01.320Z,100.00
2022-10-31T08:13:29.309Z,100.00
2022-10-31T08:15:57.287Z,100.00
2022-10-31T08:18:25.261Z,100.00
2022-10-31T08:20:55.811Z,100.00
2022-10-31T08:23:24.156Z,100.00
2022-10-31T08:25:52.155Z,100.00
2022-10-31T08:28:20.054Z,100.00
2022-10-31T08:30:48.465Z,100.00
2022-10-31T08:33:18.896Z,100.00
2022-10-31T08:35:47.252Z,100.00
2022-10-31T08:38:16.566Z,100.00
2022-10-31T08:40:44.808Z,100.00
2022-10-31T08:43:14.785Z,100.00
2022-10-31T08:45:43.559Z,100.00
2022-10-31T08:48:13.473Z,100.00
2022-10-31T08:50:41.485Z,100.00
2022-10-31T08:53:11.293Z,100.00
2022-10-31T08:55:41.292Z,100.00
2022-10-31T08:58:14.585Z,100.00
2022-10-31T09:00:42.545Z,100.00
2022-10-31T09:03:13.227Z,100.00
2022-10-31T09:05:41.272Z,100.00
2022-10-31T09:08:14.738Z,100.00
2022-10-31T09:10:45.606Z,100.00
2022-10-31T09:13:15.123Z,100.00
2022-10-31T09:15:44.792Z,100.00
2022-10-31T09:18:13.334Z,100.00
2022-10-31T09:20:42.399Z,100.00
2022-10-31T09:23:12.565Z,100.00
2022-10-31T09:25:41.779Z,100.00
2022-10-31T09:28:14.668Z,100.00
2022-10-31T09:30:42.456Z,100.00
2022-10-31T09:33:12.439Z,100.00
2022-10-31T09:35:40.701Z,95.86
2022-10-31T09:38:11.001Z,98.40
2022-10-31T09:40:40.440Z,97.12
2022-10-31T09:43:17.943Z,94.63
2022-10-31T09:45:53.531Z,92.61
2022-10-31T09:48:38.179Z,94.29
2022-10-31T09:51:08.176Z,94.84
2022-10-31T09:53:40.171Z,90.94
2022-10-31T09:56:10.246Z,93.66
2022-10-31T09:58:44.415Z,87.29
2022-10-31T10:01:22.501Z,90.72
2022-10-31T10:03:52.356Z,89.93
2022-10-31T10:06:24.472Z,87.91
2022-10-31T10:08:52.205Z,89.58
2022-10-31T10:11:31.391Z,89.97
2022-10-31T10:14:09.953Z,89.28
2022-10-31T10:16:51.082Z,85.79
2022-10-31T10:19:35.130Z,86.79
2022-10-31T10:22:07.407Z,88.78
2022-10-31T10:24:50.433Z,88.08
2022-10-31T10:27:23.553Z,86.05
2022-10-31T10:30:00.460Z,87.49
2022-10-31T10:32:31.158Z,86.59
2022-10-31T10:35:04.608Z,83.38
2022-10-31T10:37:35.034Z,82.21
2022-10-31T10:40:09.704Z,79.10
2022-10-31T10:42:55.429Z,81.94
2022-10-31T10:45:48.353Z,80.21
2022-10-31T10:48:18.061Z,81.77
2022-10-31T10:50:49.887Z,82.15
2022-10-31T10:53:36.275Z,82.09
2022-10-31T10:56:13.239Z,77.07
2022-10-31T10:58:42.790Z,78.53
2022-10-31T11:03:47.244Z,74.53
2022-10-31T11:06:23.452Z,73.79
2022-10-31T11:08:52.266Z,72.58
2022-10-31T11:11:30.807Z,67.95
2022-10-31T11:14:04.274Z,70.25
2022-10-31T11:16:41.367Z,70.55
2022-10-31T11:19:28.552Z,70.07
2022-10-31T11:21:56.588Z,74.61
2022-10-31T11:24:27.260Z,70.03
2022-10-31T11:27:07.681Z,73.72
2022-10-31T11:29:38.090Z,71.92
2022-10-31T11:32:07.662Z,72.93
2022-10-31T11:34:39.305Z,72.35
2022-10-31T11:37:11.990Z,69.73
2022-10-31T11:39:43.284Z,71.33
2022-10-31T11:42:12.273Z,66.23
2022-10-31T11:44:43.899Z,70.42
2022-10-31T11:47:16.836Z,66.84
2022-10-31T11:49:47.485Z,67.08
2022-10-31T11:52:17.056Z,69.78
2022-10-31T11:54:48.984Z,71.15
2022-10-31T11:57:30.672Z,71.49
2022-10-31T11:59:59.741Z,74.16
2022-10-31T12:02:29.484Z,71.91
2022-10-31T12:05:03.322Z,74.37
2022-10-31T12:07:31.609Z,73.76
2022-10-31T12:10:00.567Z,74.69
2022-10-31T12:12:44.306Z,73.85
2022-10-31T12:15:24.798Z,72.24
2022-10-31T12:20:40.419Z,70.05
2022-10-31T12:23:12.880Z,69.60
2022-10-31T12:25:46.628Z,70.38
2022-10-31T12:28:34.064Z,69.52
2022-10-31T12:31:10.100Z,67.95
2022-10-31T12:33:50.215Z,67.91
2022-10-31T12:36:38.092Z,67.24
2022-10-31T12:39:19.487Z,63.63
2022-10-31T12:41:51.277Z,69.64
2022-10-31T12:45:03.865Z,67.16
2022-10-31T12:47:57.366Z,67.85
2022-10-31T12:50:32.629Z,65.83
2022-10-31T12:53:10.719Z,66.63
2022-10-31T13:28:47.197Z,67.15
2022-10-31T13:32:00.782Z,67.84
2022-10-31T13:34:35.116Z,67.42
2022-10-31T13:37:07.620Z,69.47
2022-10-31T13:39:47.802Z,68.14
2022-10-31T13:42:21.285Z,67.02
2022-10-31T13:44:50.379Z,67.55
2022-10-31T13:47:26.859Z,65.50
2022-10-31T13:50:06.377Z,66.30
2022-10-31T13:52:34.230Z,67.39
2022-10-31T13:55:01.969Z,68.00
2022-10-31T13:57:34.623Z,66.90
2022-10-31T14:00:07.310Z,69.00
2022-10-31T14:02:37.292Z,67.97
2022-10-31T14:05:10.010Z,68.18
2022-10-31T14:07:45.247Z,67.49
2022-10-31T14:10:23.831Z,67.35
2022-10-31T14:12:51.782Z,66.70
2022-10-31T14:15:22.504Z,65.45
2022-10-31T14:17:52.983Z,66.09
2022-10-31T14:20:41.975Z,64.41
2022-10-31T14:23:29.110Z,64.34
2022-10-31T14:26:08.961Z,64.03
2022-10-31T14:28:39.093Z,64.97
2022-10-31T14:31:37.459Z,64.99
2022-10-31T14:34:21.533Z,64.45
2022-10-31T14:37:11.221Z,65.21
2022-10-31T14:39:44.555Z,65.03
2022-10-31T14:42:23.764Z,63.73
2022-10-31T14:45:20.766Z,63.82
2022-10-31T14:48:05.178Z,63.66
2022-10-31T14:50:43.867Z,64.28
2022-10-31T14:53:17.137Z,64.57
2022-10-31T15:22:57.703Z,67.93
2022-10-31T15:25:26.992Z,67.76
2022-10-31T15:27:55.228Z,69.88
2022-10-31T15:30:24.896Z,70.07
2022-10-31T15:33:01.107Z,70.16
2022-10-31T15:35:30.696Z,69.19
2022-10-31T15:38:02.602Z,68.89
2022-10-31T15:40:30.688Z,69.50
2022-10-31T15:43:01.603Z,68.62
2022-10-31T15:45:31.468Z,68.67
2022-10-31T15:48:01.371Z,71.02
2022-10-31T15:50:34.946Z,71.03
2022-10-31T15:53:05.617Z,69.48
2022-10-31T15:55:38.048Z,70.56
2022-10-31T15:58:06.431Z,72.20
2022-10-31T16:00:35.619Z,73.18
2022-10-31T16:03:06.392Z,75.12
2022-10-31T16:05:39.550Z,76.96
2022-10-31T16:08:25.823Z,79.11
2022-10-31T16:10:53.910Z,79.89
2022-10-31T16:13:37.751Z,81.18
2022-10-31T16:19:05.065Z,81.59
2022-10-31T16:21:39.207Z,81.51
2022-10-31T16:27:04.915Z,80.51
2022-10-31T16:29:37.649Z,81.06
2022-10-31T16:32:06.685Z,82.07
2022-10-31T16:34:39.781Z,82.98
2022-10-31T16:37:09.609Z,82.52
2022-10-31T16:39:40.257Z,83.61
2022-10-31T16:42:11.315Z,84.27
2022-10-31T16:44:39.151Z,83.73
2022-10-31T16:47:12.095Z,85.18
2022-10-31T16:49:39.757Z,86.11
2022-10-31T16:52:07.969Z,87.50
2022-10-31T16:54:35.786Z,87.07
2022-10-31T16:57:06.405Z,86.40
2022-10-31T16:59:35.132Z,86.76
2022-10-31T17:02:03.752Z,88.21
2022-10-31T17:04:31.778Z,89.20
2022-10-31T17:06:59.604Z,90.71
2022-10-31T17:09:27.926Z,91.38
2022-10-31T17:11:55.986Z,94.21
2022-10-31T17:14:25.257Z,92.49
2022-10-31T17:16:53.281Z,93.64
2022-10-31T17:19:21.046Z,95.99
2022-10-31T17:21:49.011Z,95.87
2022-10-31T17:24:17.118Z,97.37
2022-10-31T17:26:45.465Z,96.66
2022-10-31T17:29:13.584Z,97.38
2022-10-31T17:31:43.683Z,97.58
2022-10-31T17:34:11.345Z,97.61
2022-10-31T17:36:39.120Z,97.30
2022-10-31T17:39:09.614Z,98.25
2022-10-31T17:41:37.389Z,100.00
2022-10-31T17:44:05.505Z,99.68
2022-10-31T17:46:33.288Z,100.00
2022-10-31T17:49:03.192Z,100.00
2022-10-31T17:51:30.941Z,98.88
2022-10-31T17:53:59.334Z,99.24
2022-10-31T17:56:26.996Z,100.00
2022-10-31T17:58:57.228Z,98.77
2022-10-31T18:01:25.261Z,99.79
2022-10-31T18:03:53.065Z,100.00
2022-10-31T18:06:22.137Z,100.00
2022-10-31T18:08:49.911Z,100.00
2022-10-31T18:11:18.961Z,100.00
2022-10-31T18:13:46.736Z,100.00
2022-10-31T18:16:17.380Z,100.00
2022-10-31T18:18:45.155Z,100.00
2022-10-31T18:21:12.982Z,100.00
2022-10-31T18:23:42.135Z,100.00
2022-10-31T18:26:09.912Z,100.00
2022-10-31T18:28:37.785Z,100.00
2022-10-31T18:31:06.084Z,100.00
2022-10-31T18:33:33.724Z,100.00
2022-10-31T18:36:06.861Z,100.00
2022-10-31T18:38:34.677Z,100.00
2022-10-31T18:41:03.942Z,100.00
2022-10-31T18:43:31.670Z,100.00
2022-10-31T18:46:02.282Z,100.00
2022-10-31T18:48:31.387Z,100.00
2022-10-31T18:50:59.290Z,100.00
2022-10-31T18:53:27.052Z,100.00
2022-10-31T18:55:54.910Z,100.00
2022-10-31T18:58:24.085Z,100.00
2022-10-31T19:00:51.913Z,100.00
2022-10-31T19:03:24.889Z,100.00
2022-10-31T19:05:55.733Z,100.00
2022-10-31T19:08:23.619Z,100.00
2022-10-31T19:10:51.401Z,100.00
2022-10-31T19:13:19.088Z,100.00
2022-10-31T19:15:48.124Z,100.00
2022-10-31T19:18:15.872Z,100.00
2022-10-31T19:20:43.685Z,100.00
2022-10-31T19:23:11.543Z,100.00
2022-10-31T19:25:39.474Z,100.00
2022-10-31T19:28:09.155Z,100.00
2022-10-31T19:30:37.024Z,100.00
2022-10-31T19:33:07.903Z,100.00
2022-10-31T19:35:35.862Z,100.00
2022-10-31T19:38:04.566Z,100.00
2022-10-31T19:40:33.730Z,100.00
2022-10-31T19:43:02.530Z,100.00
2022-10-31T19:45:30.316Z,100.00
2022-10-31T19:47:58.243Z,100.00
2022-10-31T19:50:27.746Z,100.00
2022-10-31T19:52:55.366Z,100.00
2022-10-31T19:55:23.086Z,100.00
2022-10-31T19:58:01.720Z,100.00
2022-10-31T20:00:30.099Z,100.00
2022-10-31T20:02:57.973Z,100.00
2022-10-31T20:05:27.237Z,100.00
2022-10-31T20:07:54.887Z,100.00
2022-10-31T20:10:22.530Z,100.00
2022-10-31T20:12:50.162Z,100.00
2022-10-31T20:15:18.066Z,100.00
2022-10-31T20:17:45.851Z,100.00
2022-10-31T20:20:13.710Z,100.00
2022-10-31T20:22:42.861Z,100.00
2022-10-31T20:25:10.550Z,100.00
2022-10-31T20:27:38.206Z,100.00
2022-10-31T20:30:06.884Z,100.00
2022-10-31T20:32:34.703Z,100.00
2022-10-31T20:35:02.442Z,100.00
2022-10-31T20:37:30.301Z,100.00
2022-10-31T20:39:59.450Z,100.00
2022-10-31T20:42:27.285Z,100.00
2022-10-31T20:44:55.131Z,100.00
2022-10-31T20:47:23.487Z,100.00
2022-10-31T20:49:53.684Z,100.00
2022-10-31T20:52:21.572Z,100.00
2022-10-31T20:54:49.402Z,100.00
2022-10-31T20:57:18.481Z,100.00
2022-10-31T20:59:46.115Z,100.00
2022-10-31T21:02:13.888Z,100.00
2022-10-31T21:04:41.639Z,100.00
2022-10-31T21:07:09.689Z,100.00
2022-10-31T21:09:37.486Z,100.00
2022-10-31T21:12:05.774Z,100.00
2022-10-31T21:14:36.463Z,100.00
2022-10-31T21:17:04.607Z,100.00
2022-10-31T21:19:32.434Z,100.00
2022-10-31T21:22:00.372Z,100.00
2022-10-31T21:24:31.743Z,100.00
2022-10-31T21:26:59.512Z,100.00
2022-10-31T21:29:27.208Z,100.00
2022-10-31T21:31:56.156Z,100.00
2022-10-31T21:34:23.842Z,100.00
2022-10-31T21:36:51.587Z,100.00
2022-10-31T21:39:19.491Z,100.00
2022-10-31T21:41:47.194Z,100.00
2022-10-31T21:44:14.853Z,100.00
2022-10-31T21:46:43.071Z,100.00
2022-10-31T21:49:12.507Z,100.00
2022-10-31T21:51:40.884Z,100.00
2022-10-31T21:54:27.551Z,100.00
2022-10-31T21:56:55.587Z,100.00
2022-10-31T21:59:23.363Z,100.00
2022-10-31T22:01:51.387Z,100.00
2022-10-31T22:04:20.913Z,100.00
2022-10-31T22:06:48.583Z,100.00
2022-10-31T22:09:17.211Z,100.00
2022-10-31T22:11:44.845Z,100.00
2022-10-31T22:14:13.558Z,100.00
2022-10-31T22:16:41.826Z,100.00
2022-10-31T22:19:12.176Z,100.00
2022-10-31T22:21:43.313Z,100.00
2022-10-31T22:24:11.739Z,100.00
2022-10-31T22:26:40.257Z,100.00
2022-10-31T22:29:10.944Z,100.00
2022-10-31T22:31:40.030Z,100.00
2022-10-31T22:34:08.127Z,100.00
2022-10-31T22:36:36.244Z,100.00
2022-10-31T22:39:05.597Z,100.00
2022-10-31T22:41:35.137Z,100.00
2022-10-31T22:44:03.923Z,100.00
2022-10-31T22:46:33.279Z,100.00
2022-10-31T22:49:02.418Z,100.00
2022-10-31T22:51:31.992Z,100.00
2022-10-31T22:54:00.088Z,100.00
2022-10-31T22:56:30.760Z,100.00
2022-10-31T22:58:58.730Z,100.00
2022-10-31T23:01:29.623Z,100.00
2022-10-31T23:03:57.693Z,100.00
2022-10-31T23:06:27.040Z,100.00
2022-10-31T23:08:55.489Z,100.00
2022-10-31T23:11:24.984Z,100.00
2022-10-31T23:14:13.751Z,100.00
2022-10-31T23:16:47.196Z,100.00
2022-10-31T23:19:17.254Z,100.00
2022-10-31T23:21:56.073Z,100.00
2022-10-31T23:24:25.536Z,100.00
2022-10-31T23:27:11.485Z,100.00
2022-10-31T23:29:43.551Z,100.00
2022-10-31T23:32:14.363Z,100.00
2022-10-31T23:34:42.034Z,100.00
2022-10-31T23:37:10.389Z,100.00
2022-10-31T23:39:38.352Z,100.00
2022-10-31T23:42:06.558Z,100.00
2022-10-31T23:44:34.210Z,100.00
2022-10-31T23:47:03.331Z,100.00
2022-10-31T23:49:31.058Z,100.00
2022-10-31T23:51:58.908Z,100.00
2022-10-31T23:54:27.368Z,100.00
2022-10-31T23:56:55.440Z,100.00
2022-10-31T23:59:23.317Z,100.00
